createdAt,value
2023-02-04T00:01:29.841Z,98716.50
2023-02-04T00:04:31.323Z,98713.66
2023-02-04T00:07:32.815Z,98713.03
2023-02-04T00:10:34.473Z,98712.31
2023-02-04T00:13:36.119Z,98718.28
2023-02-04T00:16:37.563Z,98721.75
2023-02-04T00:19:40.800Z,98705.06
2023-02-04T00:22:42.322Z,98711.03
2023-02-04T00:25:43.794Z,98718.19
2023-02-04T00:28:45.327Z,98714.22
2023-02-04T00:31:46.855Z,98715.25
2023-02-04T00:34:48.388Z,98716.31
2023-02-04T00:37:50.658Z,98708.22
2023-02-04T00:40:52.511Z,98703.09
2023-02-04T00:43:53.967Z,98703.81
2023-02-04T00:46:55.563Z,98694.97
2023-02-04T00:49:57.431Z,98695.94
2023-02-04T00:53:01.841Z,98681.97
2023-02-04T00:56:04.763Z,98681.25
2023-02-04T00:59:06.260Z,98683.09
2023-02-04T01:02:07.802Z,98680.56
2023-02-04T01:05:10.404Z,98668.53
2023-02-04T01:08:12.309Z,98683.81
2023-02-04T01:11:13.803Z,98684.13
2023-02-04T01:14:15.373Z,98697.44
2023-02-04T01:17:18.365Z,98701.34
2023-02-04T01:20:21.404Z,98700.84
2023-02-04T01:23:23.646Z,98699.56
2023-02-04T01:26:25.298Z,98686.75
2023-02-04T01:29:28.611Z,98692.34
2023-02-04T01:32:30.053Z,98694.25
2023-02-04T01:35:31.557Z,98699.41
2023-02-04T01:38:33.025Z,98701.31
2023-02-04T01:41:34.601Z,98698.91
2023-02-04T01:44:36.293Z,98700.59
2023-02-04T01:47:38.509Z,98697.84
2023-02-04T01:50:40.852Z,98701.53
2023-02-04T01:53:42.889Z,98707.19
2023-02-04T01:56:47.757Z,98698.69
2023-02-04T01:59:52.921Z,98703.44
2023-02-04T02:02:56.373Z,98707.63
2023-02-04T02:05:58.342Z,98698.06
2023-02-04T02:09:01.674Z,98698.28
2023-02-04T02:12:04.346Z,98690.53
2023-02-04T02:15:07.723Z,98684.69
2023-02-04T02:18:10.552Z,98685.28
2023-02-04T02:21:16.167Z,98678.56
2023-02-04T02:24:23.766Z,98685.78
2023-02-04T02:27:27.471Z,98683.00
2023-02-04T02:30:29.580Z,98681.31
2023-02-04T02:33:31.567Z,98676.91
2023-02-04T02:36:33.134Z,98677.75
2023-02-04T02:39:36.521Z,98664.00
2023-02-04T02:42:38.497Z,98668.78
2023-02-04T02:45:40.055Z,98663.69
2023-02-04T02:48:41.722Z,98661.88
2023-02-04T02:51:44.200Z,98658.59
2023-02-04T02:54:46.446Z,98657.91
2023-02-04T02:57:51.140Z,98652.66
2023-02-04T03:00:53.383Z,98663.25
2023-02-04T03:03:55.788Z,98664.00
2023-02-04T03:06:57.644Z,98667.84
2023-02-04T03:09:59.244Z,98664.16
2023-02-04T03:13:00.839Z,98665.72
2023-02-04T03:16:03.519Z,98654.13
2023-02-04T03:19:06.967Z,98659.44
2023-02-04T03:22:08.886Z,98672.22
2023-02-04T03:25:10.421Z,98668.66
2023-02-04T03:28:12.048Z,98669.38
2023-02-04T03:31:13.673Z,98674.75
2023-02-04T03:34:15.159Z,98673.78
2023-02-04T03:37:16.630Z,98681.66
2023-02-04T03:40:18.264Z,98678.56
2023-02-04T03:43:19.770Z,98670.78
2023-02-04T03:46:23.642Z,98664.56
2023-02-04T03:49:26.225Z,98653.34
2023-02-04T03:52:27.748Z,98654.91
2023-02-04T03:55:29.300Z,98663.63
2023-02-04T03:58:30.790Z,98669.94
2023-02-04T04:01:32.584Z,98675.22
2023-02-04T04:04:34.132Z,98676.59
2023-02-04T04:07:35.612Z,98669.88
2023-02-04T04:10:37.116Z,98679.47
2023-02-04T04:13:38.679Z,98670.59
2023-02-04T04:16:40.152Z,98687.13
2023-02-04T04:19:41.639Z,98691.50
2023-02-04T04:22:43.170Z,98695.22
2023-02-04T04:25:44.674Z,98691.63
2023-02-04T04:28:46.239Z,98684.22
2023-02-04T04:31:47.937Z,98690.19
2023-02-04T04:34:49.518Z,98682.88
2023-02-04T04:37:51.030Z,98680.03
2023-02-04T04:40:52.487Z,98688.78
2023-02-04T04:43:53.906Z,98693.09
2023-02-04T04:46:55.498Z,98683.88
2023-02-04T04:49:57.028Z,98687.44
2023-02-04T04:52:58.544Z,98688.88
2023-02-04T04:55:59.984Z,98677.69
2023-02-04T04:59:01.451Z,98684.16
2023-02-04T05:02:02.911Z,98677.00
2023-02-04T05:05:04.630Z,98677.97
2023-02-04T05:08:13.002Z,98681.94
2023-02-04T05:11:14.457Z,98684.38
2023-02-04T05:14:15.880Z,98680.53
2023-02-04T05:17:17.361Z,98678.63
2023-02-04T05:20:18.999Z,98687.34
2023-02-04T05:23:20.522Z,98686.63
2023-02-04T05:26:29.780Z,98691.88
2023-02-04T05:29:31.865Z,98687.72
2023-02-04T05:32:33.364Z,98691.16
2023-02-04T05:35:34.819Z,98690.34
2023-02-04T05:38:36.236Z,98690.22
2023-02-04T05:41:37.771Z,98695.34
2023-02-04T05:44:39.258Z,98698.81
2023-02-04T05:47:40.783Z,98696.31
2023-02-04T05:50:42.271Z,98696.19
2023-02-04T05:53:43.806Z,98701.03
2023-02-04T05:56:46.889Z,98691.00
2023-02-04T05:59:48.427Z,98697.09
2023-02-04T06:02:49.920Z,98691.72
2023-02-04T06:05:51.415Z,98694.22
2023-02-04T06:08:52.869Z,98705.13
2023-02-04T06:11:54.366Z,98705.75
2023-02-04T06:14:56.128Z,98709.34
2023-02-04T06:17:58.494Z,98711.00
2023-02-04T06:21:00.008Z,98716.16
2023-02-04T06:24:01.526Z,98719.38
2023-02-04T06:27:03.046Z,98723.31
2023-02-04T06:30:05.032Z,98718.56
2023-02-04T06:33:06.526Z,98730.88
2023-02-04T06:36:08.141Z,98724.63
2023-02-04T06:39:09.690Z,98722.13
2023-02-04T06:42:11.164Z,98727.16
2023-02-04T06:45:12.690Z,98724.25
2023-02-04T06:48:14.147Z,98726.03
2023-02-04T06:51:15.574Z,98732.28
2023-02-04T06:54:17.961Z,98735.63
2023-02-04T06:57:19.405Z,98744.81
2023-02-04T07:00:21.090Z,98745.88
2023-02-04T07:03:22.510Z,98750.31
2023-02-04T07:06:23.935Z,98747.69
2023-02-04T07:09:25.905Z,98753.91
2023-02-04T07:12:27.381Z,98751.88
2023-02-04T07:15:28.993Z,98742.31
2023-02-04T07:18:30.516Z,98763.94
2023-02-04T07:21:31.999Z,98762.03
2023-02-04T07:24:33.479Z,98763.72
2023-02-04T07:27:34.905Z,98767.06
2023-02-04T07:30:36.608Z,98769.34
2023-02-04T07:33:38.795Z,98770.31
2023-02-04T07:36:40.996Z,98770.44
2023-02-04T07:39:42.486Z,98779.25
2023-02-04T07:42:44.240Z,98771.25
2023-02-04T07:45:51.408Z,98773.78
2023-02-04T07:48:52.995Z,98776.78
2023-02-04T07:51:54.627Z,98780.50
2023-02-04T07:54:56.056Z,98780.63
2023-02-04T07:57:57.895Z,98792.19
2023-02-04T08:00:59.663Z,98787.44
2023-02-04T08:04:01.177Z,98796.16
2023-02-04T08:07:02.691Z,98794.84
2023-02-04T08:10:05.322Z,98789.84
2023-02-04T08:13:06.943Z,98793.56
2023-02-04T08:16:09.364Z,98797.75
2023-02-04T08:19:12.647Z,98791.66
2023-02-04T08:22:14.230Z,98790.59
2023-02-04T08:25:16.246Z,98792.31
2023-02-04T08:28:18.123Z,98794.34
2023-02-04T08:31:19.700Z,98797.09
2023-02-04T08:34:21.306Z,98794.81
2023-02-04T08:37:22.807Z,98797.56
2023-02-04T08:40:24.258Z,98802.34
2023-02-04T08:43:26.798Z,98802.00
2023-02-04T08:46:28.396Z,98807.63
2023-02-04T08:49:29.981Z,98810.75
2023-02-04T08:52:31.514Z,98818.63
2023-02-04T08:55:33.027Z,98819.72
2023-02-04T08:58:35.099Z,98820.19
2023-02-04T09:01:36.595Z,98821.16
2023-02-04T09:04:38.164Z,98816.47
2023-02-04T09:07:39.602Z,98826.50
2023-02-04T09:10:41.286Z,98830.69
2023-02-04T09:13:42.770Z,98843.16
2023-02-04T09:16:44.350Z,98841.72
2023-02-04T09:19:46.011Z,98846.03
2023-02-04T09:22:50.264Z,98847.59
2023-02-04T09:25:51.749Z,98840.19
2023-02-04T09:28:53.416Z,98839.09
2023-02-04T09:31:54.991Z,98843.53
2023-02-04T09:34:56.544Z,98844.97
2023-02-04T09:37:58.025Z,98854.31
2023-02-04T09:41:06.437Z,98868.44
2023-02-04T09:44:16.481Z,98868.91
2023-02-04T09:47:23.778Z,98865.78
2023-02-04T09:50:28.182Z,98866.78
2023-02-04T09:53:30.185Z,98876.09
2023-02-04T09:56:32.146Z,98872.97
2023-02-04T09:59:33.621Z,98880.28
2023-02-04T10:02:35.196Z,98868.91
2023-02-04T10:05:37.277Z,98874.91
2023-02-04T10:08:40.070Z,98879.56
2023-02-04T10:11:42.859Z,98878.03
2023-02-04T10:14:44.668Z,98876.34
2023-02-04T10:17:52.414Z,98886.16
2023-02-04T10:21:14.832Z,98885.81
2023-02-04T10:24:19.911Z,98889.59
2023-02-04T10:27:21.513Z,98891.19
2023-02-04T10:30:31.283Z,98885.31
2023-02-04T10:33:35.326Z,98883.41
2023-02-04T10:36:37.120Z,98885.91
2023-02-04T10:39:43.252Z,98881.13
2023-02-04T10:42:50.115Z,98869.38
2023-02-04T10:46:04.563Z,98864.09
2023-02-04T10:49:17.224Z,98865.69
2023-02-04T10:52:21.480Z,98864.81
2023-02-04T10:55:24.198Z,98869.19
2023-02-04T10:58:31.328Z,98866.53
2023-02-04T11:01:32.957Z,98869.50
2023-02-04T11:04:34.521Z,98870.50
2023-02-04T11:07:36.029Z,98868.19
2023-02-04T11:10:37.530Z,98870.38
2023-02-04T11:13:50.010Z,98881.31
2023-02-04T11:16:51.614Z,98870.22
2023-02-04T11:19:53.061Z,98874.19
2023-02-04T11:22:54.727Z,98871.03
2023-02-04T11:26:19.084Z,98869.34
2023-02-04T11:29:26.478Z,98863.94
2023-02-04T11:32:37.933Z,98859.16
2023-02-04T11:35:39.548Z,98865.25
2023-02-04T11:38:46.962Z,98865.81
2023-02-04T11:41:48.453Z,98867.88
2023-02-04T11:44:59.789Z,98876.38
2023-02-04T11:48:04.393Z,98879.22
2023-02-04T11:51:15.252Z,98868.97
2023-02-04T11:54:19.256Z,98873.94
2023-02-04T11:57:20.713Z,98864.75
2023-02-04T12:00:25.517Z,98869.69
2023-02-04T12:03:34.145Z,98871.31
2023-02-04T12:06:37.047Z,98869.47
2023-02-04T12:09:47.525Z,98867.31
2023-02-04T12:12:52.104Z,98865.56
2023-02-04T12:16:02.560Z,98862.81
2023-02-04T12:19:04.073Z,98862.84
2023-02-04T12:22:05.554Z,98863.03
2023-02-04T12:25:07.641Z,98867.34
2023-02-04T12:28:09.192Z,98873.75
2023-02-04T12:31:10.881Z,98873.25
2023-02-04T12:34:12.562Z,98873.97
2023-02-04T12:37:14.069Z,98875.03
2023-02-04T12:40:17.275Z,98874.06
2023-02-04T12:43:18.817Z,98867.66
2023-02-04T12:46:20.328Z,98867.84
2023-02-04T12:49:24.207Z,98877.63
2023-02-04T12:52:25.705Z,98883.13
2023-02-04T12:55:29.254Z,98877.34
2023-02-04T12:58:30.835Z,98878.63
2023-02-04T13:01:33.623Z,98871.00
2023-02-04T13:04:36.336Z,98881.22
2023-02-04T13:07:40.701Z,98887.31
2023-02-04T13:10:42.825Z,98889.78
2023-02-04T13:13:44.316Z,98892.38
2023-02-04T13:16:45.798Z,98887.50
2023-02-04T13:19:47.372Z,98895.66
2023-02-04T13:22:48.912Z,98894.47
2023-02-04T13:25:50.410Z,98892.41
2023-02-04T13:28:51.920Z,98883.56
2023-02-04T13:31:53.448Z,98887.13
2023-02-04T13:34:54.951Z,98887.28
2023-02-04T13:37:56.675Z,98894.88
2023-02-04T13:40:58.164Z,98895.56
2023-02-04T13:43:59.714Z,98885.50
2023-02-04T13:47:01.266Z,98897.22
2023-02-04T13:50:02.832Z,98899.94
2023-02-04T13:53:04.308Z,98899.22
2023-02-04T13:56:05.980Z,98894.66
2023-02-04T13:59:07.544Z,98901.09
2023-02-04T14:02:09.675Z,98905.69
2023-02-04T14:05:11.221Z,98891.38
2023-02-04T14:08:12.667Z,98907.22
2023-02-04T14:11:14.227Z,98911.31
2023-02-04T14:14:15.974Z,98908.47
2023-02-04T14:17:17.559Z,98913.97
2023-02-04T14:20:19.106Z,98933.63
2023-02-04T14:23:20.591Z,98932.50
2023-02-04T14:26:22.056Z,98932.38
2023-02-04T14:29:23.609Z,98930.44
2023-02-04T14:32:25.108Z,98937.41
2023-02-04T14:35:27.038Z,98936.31
2023-02-04T14:38:30.892Z,98933.63
2023-02-04T14:41:32.485Z,98926.75
2023-02-04T14:44:33.920Z,98935.91
2023-02-04T14:47:36.410Z,98936.47
2023-02-04T14:50:37.914Z,98938.75
2023-02-04T14:53:42.354Z,98946.22
2023-02-04T14:56:47.735Z,98941.28
2023-02-04T14:59:49.176Z,98944.16
2023-02-04T15:02:50.680Z,98948.00
2023-02-04T15:05:52.206Z,98946.19
2023-02-04T15:08:53.846Z,98943.31
2023-02-04T15:11:55.927Z,98941.53
2023-02-04T15:14:57.431Z,98943.47
2023-02-04T15:17:58.939Z,98943.25
2023-02-04T15:21:00.589Z,98941.72
2023-02-04T15:24:02.191Z,98945.19
2023-02-04T15:27:03.765Z,98943.63
2023-02-04T15:30:05.467Z,98945.91
2023-02-04T15:33:06.907Z,98943.53
2023-02-04T15:36:08.586Z,98945.28
2023-02-04T15:39:10.083Z,98947.34
2023-02-04T15:42:11.613Z,98955.00
2023-02-04T15:45:13.161Z,98952.84
2023-02-04T15:48:15.539Z,98952.91
2023-02-04T15:51:17.358Z,98960.06
2023-02-04T15:54:18.891Z,98954.78
2023-02-04T15:57:20.386Z,98954.25
2023-02-04T16:00:22.818Z,98958.13
2023-02-04T16:03:25.516Z,98965.66
2023-02-04T16:06:27.175Z,98967.50
2023-02-04T16:09:28.633Z,98974.72
2023-02-04T16:12:30.161Z,98971.66
2023-02-04T16:15:32.246Z,98964.75
2023-02-04T16:18:34.055Z,98965.63
2023-02-04T16:21:35.559Z,98966.16
2023-02-04T16:24:38.506Z,98967.00
2023-02-04T16:27:40.171Z,98966.91
2023-02-04T16:30:41.615Z,98971.53
2023-02-04T16:33:43.077Z,98971.50
2023-02-04T16:36:44.545Z,98973.47
2023-02-04T16:39:46.027Z,98968.41
2023-02-04T16:42:47.601Z,98980.34
2023-02-04T16:45:49.166Z,98982.72
2023-02-04T16:48:50.672Z,98987.63
2023-02-04T16:51:52.136Z,98996.06
2023-02-04T16:54:53.728Z,98994.50
2023-02-04T16:57:55.601Z,98993.22
2023-02-04T17:00:57.593Z,99001.56
2023-02-04T17:03:59.217Z,98995.97
2023-02-04T17:07:00.772Z,99007.41
2023-02-04T17:10:02.328Z,99002.00
2023-02-04T17:13:03.826Z,98993.03
2023-02-04T17:16:05.695Z,99007.91
2023-02-04T17:19:07.382Z,99014.63
2023-02-04T17:22:08.842Z,99021.47
2023-02-04T17:25:10.338Z,99016.91
2023-02-04T17:28:11.877Z,99026.06
2023-02-04T17:31:13.973Z,99024.56
2023-02-04T17:34:15.506Z,99027.91
2023-02-04T17:37:17.013Z,99031.00
2023-02-04T17:40:18.550Z,99025.84
2023-02-04T17:43:19.988Z,99031.09
2023-02-04T17:46:21.659Z,99036.25
2023-02-04T17:49:23.149Z,99035.47
2023-02-04T17:52:26.623Z,99032.97
2023-02-04T17:55:30.657Z,99033.88
2023-02-04T17:58:32.976Z,99039.03
2023-02-04T18:01:34.598Z,99034.34
2023-02-04T18:04:36.532Z,99050.53
2023-02-04T18:07:38.058Z,99041.34
2023-02-04T18:10:43.371Z,99057.56
2023-02-04T18:13:45.044Z,99057.47
2023-02-04T18:16:46.691Z,99057.09
2023-02-04T18:19:48.189Z,99065.44
2023-02-04T18:22:55.449Z,99053.56
2023-02-04T18:26:10.626Z,99061.78
2023-02-04T18:29:43.000Z,99055.97
2023-02-04T18:32:44.483Z,99051.78
2023-02-04T18:35:50.290Z,99053.34
2023-02-04T18:38:51.785Z,99055.06
2023-02-04T18:41:53.302Z,99053.91
2023-02-04T18:44:56.696Z,99046.25
2023-02-04T18:48:00.858Z,99049.25
2023-02-04T18:51:02.451Z,99057.38
2023-02-04T18:54:48.668Z,99061.03
2023-02-04T18:57:50.177Z,99057.00
2023-02-04T19:01:27.567Z,99061.03
2023-02-04T19:04:33.222Z,99070.81
2023-02-04T19:07:35.733Z,99064.91
2023-02-04T19:10:39.665Z,99072.97
2023-02-04T19:13:42.259Z,99069.31
2023-02-04T19:16:44.500Z,99076.47
2023-02-04T19:20:00.896Z,99080.34
2023-02-04T19:23:02.383Z,99076.78
2023-02-04T19:26:23.979Z,99072.31
2023-02-04T19:29:27.457Z,99066.31
2023-02-04T19:32:38.159Z,99070.06
2023-02-04T19:35:45.098Z,99076.78
2023-02-04T19:38:48.001Z,99072.38
2023-02-04T19:41:52.075Z,99065.22
2023-02-04T19:44:53.664Z,99058.09
2023-02-04T19:47:56.616Z,99059.09
2023-02-04T19:50:58.711Z,99057.09
2023-02-04T19:54:11.648Z,99063.03
2023-02-04T19:57:25.962Z,99065.72
2023-02-04T20:00:33.558Z,99076.28
2023-02-04T20:03:45.989Z,99072.56
2023-02-04T20:06:47.899Z,99079.13
2023-02-04T20:09:54.748Z,99069.50
2023-02-04T20:13:00.613Z,99086.88
2023-02-04T20:16:04.059Z,99095.09
2023-02-04T20:19:42.451Z,99075.94
2023-02-04T20:22:52.568Z,99092.06
2023-02-04T20:25:55.015Z,99100.50
2023-02-04T20:28:56.554Z,99091.69
2023-02-04T20:31:58.060Z,99097.81
2023-02-04T20:35:14.493Z,99098.66
2023-02-04T20:38:18.277Z,99104.28
2023-02-04T20:41:21.170Z,99102.50
2023-02-04T20:44:36.499Z,99101.59
2023-02-04T20:47:38.102Z,99100.16
2023-02-04T20:50:48.091Z,99107.22
2023-02-04T20:53:55.340Z,99110.13
2023-02-04T20:57:09.684Z,99109.22
2023-02-04T21:00:15.834Z,99116.09
2023-02-04T21:03:37.497Z,99117.81
2023-02-04T21:06:38.959Z,99119.81
2023-02-04T21:09:40.468Z,99112.72
2023-02-04T21:12:45.681Z,99123.56
2023-02-04T21:15:47.614Z,99119.09
2023-02-04T21:18:50.616Z,99119.81
2023-02-04T21:21:52.885Z,99111.22
2023-02-04T21:24:54.471Z,99106.50
2023-02-04T21:27:56.777Z,99122.78
2023-02-04T21:30:59.316Z,99127.16
2023-02-04T21:34:01.005Z,99131.50
2023-02-04T21:37:02.490Z,99131.50
2023-02-04T21:40:04.405Z,99132.31
2023-02-04T21:43:07.967Z,99138.03
2023-02-04T21:46:09.466Z,99142.00
2023-02-04T21:49:11.019Z,99134.50
2023-02-04T21:52:13.247Z,99131.22
2023-02-04T21:55:17.286Z,99139.72
2023-02-04T21:58:18.793Z,99150.09
2023-02-04T22:01:20.279Z,99141.59
2023-02-04T22:04:21.776Z,99143.25
2023-02-04T22:07:23.504Z,99139.72
2023-02-04T22:10:25.994Z,99137.88
2023-02-04T22:13:27.567Z,99135.13
2023-02-04T22:16:29.065Z,99137.19
2023-02-04T22:19:30.610Z,99131.84
2023-02-04T22:22:32.184Z,99131.69
2023-02-04T22:25:33.965Z,99129.91
2023-02-04T22:28:35.632Z,99134.69
2023-02-04T22:31:37.224Z,99123.88
2023-02-04T22:34:38.859Z,99131.88
2023-02-04T22:37:41.899Z,99128.38
2023-02-04T22:40:43.345Z,99133.69
2023-02-04T22:43:44.797Z,99125.28
2023-02-04T22:46:47.565Z,99130.84
2023-02-04T22:49:49.244Z,99127.47
2023-02-04T22:52:50.762Z,99127.16
2023-02-04T22:55:52.274Z,99124.94
2023-02-04T22:58:54.055Z,99130.16
2023-02-04T23:01:56.289Z,99125.47
2023-02-04T23:04:57.867Z,99122.22
2023-02-04T23:07:59.328Z,99127.00
2023-02-04T23:11:00.770Z,99136.91
2023-02-04T23:14:02.296Z,99141.31
2023-02-04T23:17:03.799Z,99149.63
2023-02-04T23:20:05.738Z,99145.41
2023-02-04T23:23:08.391Z,99136.97
2023-02-04T23:26:09.968Z,99139.50
2023-02-04T23:29:11.401Z,99139.63
2023-02-04T23:32:12.823Z,99131.81
2023-02-04T23:35:14.336Z,99127.09
2023-02-04T23:38:16.059Z,99125.53
2023-02-04T23:41:17.527Z,99121.63
2023-02-04T23:44:19.034Z,99131.13
2023-02-04T23:47:20.605Z,99137.97
2023-02-04T23:50:22.125Z,99141.34
2023-02-04T23:53:24.271Z,99140.69
2023-02-04T23:56:25.790Z,99140.63
2023-02-04T23:59:27.480Z,99124.84
